Alton, Kansas
Current Conditions -  °F | °C
As of 8:53 AM on Friday 24 Oct 2014 (Local Time) from KRSL Reporting Station
Haze Haze  
Wind Chill: 14°   Ceiling: Unl
Heat Index: 14°   Visibility: 4mi
Dew Point: 13°   Wind: 12mph
Humidity: 93%   Direction: 200°SSW
Pressure: 30.01"   Gusts: NA
Location:  39.47°N, 98.95°W
Report Text: KRSL 241353Z AUTO 20010KT 4SM BR CLR 14/13 A3001 RMK AO2 SLP157 T01390128
Loading
Personal Weather Stations






























Interactive Weather Map
Tropical Storm Tracking
New forecast layout! Learn more

10-Day Weather Forecast

Advertisements
Track Severe Weather on mobile